Time;durP1;ratioP1;P1;durP2;ratioP2;P2;SDS_P1;SDS_P2;PMS_P1;PMS_P2;Temp;Humidity;BMP_temperature;BMP_pressure;BME280_temperature;BME280_humidity;BME280_pressure;Samples;Min_cycle;Max_cycle;Signal;HPM_P1;HPM_P2
2023/01/08 00:00:57;;;;;;;68.62;39.55;;;;;;;6.39;99.99;100802.82;1812007;77;25682;-76
2023/01/08 00:03:25;;;;;;;66.60;39.40;;;;;;;6.37;99.93;100804.31;1832324;77;25751;-76
2023/01/08 00:05:52;;;;;;;61.68;39.70;;;;;;;6.34;99.86;100799.29;1822798;77;25956;-76
2023/01/08 00:08:18;;;;;;;69.47;39.90;;;;;;;6.35;99.92;100796.95;1825587;77;27467;-76
2023/01/08 00:10:44;;;;;;;69.30;39.00;;;;;;;6.32;99.74;100797.77;1824435;77;25818;-75
2023/01/08 00:13:11;;;;;;;64.72;38.02;;;;;;;6.32;99.87;100795.11;1821951;77;26327;-76
2023/01/08 00:15:37;;;;;;;71.35;38.20;;;;;;;6.31;99.60;100796.11;1808831;77;25818;-76
2023/01/08 00:18:04;;;;;;;74.22;41.05;;;;;;;6.24;99.34;100787.91;1830749;77;25795;-75
2023/01/08 00:20:30;;;;;;;76.00;40.85;;;;;;;6.21;99.39;100784.22;1814090;77;27442;-75
2023/01/08 00:22:56;;;;;;;76.60;39.95;;;;;;;6.18;99.32;100785.84;1819498;77;25765;-76
2023/01/08 00:25:22;;;;;;;65.70;39.38;;;;;;;6.16;99.34;100782.50;1815568;77;25889;-76
2023/01/08 00:27:49;;;;;;;66.67;37.65;;;;;;;6.11;99.20;100782.99;1822976;77;25765;-75
2023/01/08 00:30:15;;;;;;;63.83;36.63;;;;;;;6.07;99.16;100791.42;1804741;77;25887;-75
2023/01/08 00:32:42;;;;;;;60.95;34.83;;;;;;;6.00;99.17;100785.04;1819252;77;27461;-75
2023/01/08 00:35:08;;;;;;;62.62;36.20;;;;;;;5.97;99.21;100785.33;1815857;77;25770;-76
2023/01/08 00:37:35;;;;;;;62.75;34.92;;;;;;;5.93;99.21;100786.63;1812861;77;25779;-76
2023/01/08 00:40:01;;;;;;;63.13;34.60;;;;;;;5.88;99.23;100785.75;1817933;77;26514;-76
2023/01/08 00:42:27;;;;;;;66.25;36.08;;;;;;;5.86;99.42;100784.26;1820175;77;25906;-76
2023/01/08 00:44:53;;;;;;;65.97;35.00;;;;;;;5.84;99.50;100779.07;1832827;77;28221;-75
2023/01/08 00:47:20;;;;;;;66.55;35.50;;;;;;;5.83;99.41;100777.39;1822615;77;25774;-75
2023/01/08 00:49:46;;;;;;;60.95;33.92;;;;;;;5.79;99.23;100780.01;1823573;77;26102;-76
2023/01/08 00:52:12;;;;;;;61.35;33.98;;;;;;;5.75;99.40;100777.80;1830106;77;25761;-76
2023/01/08 00:54:38;;;;;;;64.77;35.35;;;;;;;5.74;99.56;100775.63;1800205;77;25793;-75
2023/01/08 00:57:05;;;;;;;62.88;35.70;;;;;;;5.74;99.53;100765.00;1817909;77;27916;-75
2023/01/08 00:59:31;;;;;;;58.00;31.40;;;;;;;5.70;99.55;100764.97;1810074;77;26553;-75
2023/01/08 01:01:57;;;;;;;55.63;31.23;;;;;;;5.71;99.67;100770.61;1821929;77;25794;-75
2023/01/08 01:04:25;;;;;;;58.63;32.83;;;;;;;5.67;99.37;100771.05;1811804;77;25945;-76
2023/01/08 01:06:51;;;;;;;60.63;33.78;;;;;;;5.62;99.33;100768.03;1822516;77;25762;-76
2023/01/08 01:09:18;;;;;;;56.25;30.48;;;;;;;5.57;99.15;100770.30;1825462;77;27459;-75
2023/01/08 01:11:44;;;;;;;60.75;32.80;;;;;;;5.53;99.21;100764.95;1823994;77;26692;-76
2023/01/08 01:14:10;;;;;;;59.35;32.90;;;;;;;5.50;99.37;100759.44;1807912;77;26106;-76
2023/01/08 01:16:38;;;;;;;59.40;30.95;;;;;;;5.50;99.48;100766.08;1812623;77;25762;-75
2023/01/08 01:19:05;;;;;;;55.38;30.97;;;;;;;5.48;99.37;100767.56;1820525;77;25738;-76
2023/01/08 01:21:32;;;;;;;60.35;32.78;;;;;;;5.43;99.33;100758.38;1817130;77;27435;-75
2023/01/08 01:24:02;;;;;;;63.95;32.38;;;;;;;5.41;99.56;100753.69;1807921;77;25701;-75
2023/01/08 01:26:29;;;;;;;56.33;30.88;;;;;;;5.40;99.62;100756.02;1820729;77;25767;-75
2023/01/08 01:28:57;;;;;;;57.03;32.38;;;;;;;5.38;99.67;100757.98;1786197;78;25853;-75
2023/01/08 01:31:26;;;;;;;57.33;31.17;;;;;;;5.36;99.78;100750.17;1743689;79;25721;-75
2023/01/08 01:33:53;;;;;;;59.10;31.65;;;;;;;5.33;99.83;100750.95;1762606;79;28256;-75
2023/01/08 01:36:22;;;;;;;59.38;32.15;;;;;;;5.31;100.00;100747.61;1817572;77;25768;-75
2023/01/08 01:38:51;;;;;;;60.15;30.95;;;;;;;5.28;100.00;100736.78;1830202;77;26494;-76
2023/01/08 01:41:25;;;;;;;60.25;32.70;;;;;;;5.30;100.00;100744.63;1820941;77;26576;-75
2023/01/08 01:43:55;;;;;;;59.27;31.87;;;;;;;5.28;100.00;100734.64;1817069;77;25728;-75
2023/01/08 01:46:38;;;;;;;56.05;32.63;;;;;;;5.26;100.00;100741.41;1813231;77;27445;-76
2023/01/08 01:49:14;;;;;;;57.73;31.65;;;;;;;5.25;100.00;100738.43;1817914;77;25717;-76
2023/01/08 01:51:48;;;;;;;55.23;31.05;;;;;;;5.23;100.00;100736.42;1827755;77;25727;-75
2023/01/08 01:54:17;;;;;;;58.63;31.17;;;;;;;5.21;100.00;100729.58;1825359;77;25781;-75
2023/01/08 01:56:45;;;;;;;54.33;29.30;;;;;;;5.20;100.00;100728.73;1821522;77;25774;-75
2023/01/08 01:59:12;;;;;;;56.70;31.55;;;;;;;5.20;100.00;100728.73;1813552;77;28221;-77
2023/01/08 02:01:41;;;;;;;58.13;32.73;;;;;;;5.17;100.00;100722.90;1816800;77;26406;-75
2023/01/08 02:04:12;;;;;;;54.77;30.30;;;;;;;5.16;100.00;100722.54;1833625;77;25763;-75
2023/01/08 02:06:47;;;;;;;53.20;28.67;;;;;;;5.13;100.00;100725.00;1805500;77;25922;-76
2023/01/08 02:09:35;;;;;;;55.43;29.18;;;;;;;5.08;100.00;100724.63;1841641;77;25912;-75
2023/01/08 02:12:19;;;;;;;50.43;28.07;;;;;;;5.04;100.00;100725.91;1825530;77;28275;-75
2023/01/08 02:15:26;;;;;;;51.55;27.85;;;;;;;5.03;100.00;100722.05;1817278;77;25734;-75
2023/01/08 02:18:08;;;;;;;51.00;27.77;;;;;;;5.01;100.00;100715.58;1832275;77;26340;-76
2023/01/08 02:20:55;;;;;;;55.33;29.07;;;;;;;4.99;100.00;100713.56;1816478;77;26995;-75
2023/01/08 02:23:54;;;;;;;57.20;30.65;;;;;;;5.01;100.00;100711.59;1816775;77;25875;-75
2023/01/08 02:26:34;;;;;;;55.23;29.72;;;;;;;5.01;100.00;100706.77;1815533;77;27436;-75
2023/01/08 02:29:17;;;;;;;53.38;28.35;;;;;;;5.01;100.00;100706.77;1813303;77;26499;-76
2023/01/08 02:31:44;;;;;;;57.62;29.55;;;;;;;4.97;100.00;100706.24;1804860;77;26500;-76
2023/01/08 02:34:12;;;;;;;52.35;29.42;;;;;;;4.97;100.00;100706.24;1816976;77;25766;-75
2023/01/08 02:36:47;;;;;;;50.15;27.75;;;;;;;4.97;100.00;100700.93;1802822;77;25723;-75
2023/01/08 02:39:37;;;;;;;52.00;26.93;;;;;;;4.95;100.00;100694.09;1822404;77;27439;-75
2023/01/08 02:42:28;;;;;;;53.80;29.37;;;;;;;4.92;100.00;100686.45;1805917;77;25774;-75
2023/01/08 02:45:01;;;;;;;;;;;;;;;4.87;100.00;100688.22;1812761;77;25723;-75
2023/01/08 02:47:38;;;;;;;53.35;27.02;;;;;;;4.89;100.00;100684.92;1808872;77;25774;-75
2023/01/08 02:50:13;;;;;;;45.17;25.35;;;;;;;4.87;100.00;100688.22;1805624;77;25750;-76
2023/01/08 02:53:12;;;;;;;49.60;25.43;;;;;;;4.85;100.00;100693.32;1807795;77;27449;-76
2023/01/08 02:55:43;;;;;;;43.42;24.47;;;;;;;4.81;100.00;100693.27;1799748;77;25842;-75
2023/01/08 02:58:10;;;;;;;44.20;24.35;;;;;;;4.78;100.00;100697.05;1800773;77;25318;-75
2023/01/08 03:00:40;;;;;;;49.63;25.85;;;;;;;4.79;100.00;100702.69;1795232;77;25774;-75
2023/01/08 03:03:21;;;;;;;51.15;27.93;;;;;;;4.82;100.00;100699.75;1797136;77;25856;-75
2023/01/08 03:05:54;;;;;;;;;;;;;;;4.88;100.00;100701.81;1825371;77;28309;-75
2023/01/08 03:08:22;;;;;;;47.95;26.42;;;;;;;4.92;100.00;100697.87;1812994;77;25889;-76
2023/01/08 03:10:56;;;;;;;49.58;27.00;;;;;;;4.93;100.00;100700.05;1815381;77;25771;-75
2023/01/08 03:13:39;;;;;;;49.20;27.37;;;;;;;4.92;100.00;100701.05;1791657;79;26698;-75
2023/01/08 03:16:13;;;;;;;45.83;25.20;;;;;;;4.92;100.00;100703.70;1764628;79;26426;-75
2023/01/08 03:18:45;;;;;;;51.15;27.05;;;;;;;4.93;100.00;100702.22;1773206;79;27308;-75
2023/01/08 03:21:12;;;;;;;45.38;25.23;;;;;;;4.93;100.00;100698.23;1811625;77;25835;-75
2023/01/08 03:23:40;;;;;;;48.85;26.75;;;;;;;4.93;100.00;100688.09;1823080;77;26465;-76
2023/01/08 03:26:08;;;;;;;45.40;24.32;;;;;;;4.93;100.00;100684.13;1806143;77;25723;-75
2023/01/08 03:28:40;;;;;;;50.48;26.30;;;;;;;4.92;100.00;100680.63;1805143;77;26366;-76
2023/01/08 03:31:08;;;;;;;49.33;25.43;;;;;;;4.93;100.00;100675.67;1819207;77;27465;-75
2023/01/08 03:33:35;;;;;;;44.88;24.70;;;;;;;4.93;100.00;100669.04;1816130;77;25245;-76
2023/01/08 03:36:04;;;;;;;43.25;23.67;;;;;;;4.89;100.00;100666.83;1823436;77;25844;-75
2023/01/08 03:38:36;;;;;;;46.42;25.45;;;;;;;4.90;100.00;100661.88;1824434;77;25828;-76
2023/01/08 03:41:17;;;;;;;44.10;23.60;;;;;;;4.92;100.00;100660.72;1817324;77;25537;-76
2023/01/08 03:43:44;;;;;;;42.73;22.32;;;;;;;4.93;100.00;100655.77;1813323;77;27470;-75
2023/01/08 03:46:21;;;;;;;45.60;23.92;;;;;;;4.90;100.00;100649.42;1820620;77;25855;-76
2023/01/08 03:48:49;;;;;;;42.78;22.93;;;;;;;4.86;100.00;100651.19;1817277;77;25842;-76
2023/01/08 03:51:17;;;;;;;43.08;23.57;;;;;;;4.81;100.00;100658.30;1818706;77;25881;-75
2023/01/08 03:53:46;;;;;;;44.90;24.00;;;;;;;4.81;100.00;100646.84;1799023;77;25804;-76
2023/01/08 03:56:12;;;;;;;45.50;23.60;;;;;;;4.84;100.00;100650.50;1801429;77;27526;-75
2023/01/08 03:58:39;;;;;;;44.77;24.07;;;;;;;4.86;100.00;100648.05;1819372;77;26590;-75
2023/01/08 04:01:05;;;;;;;44.65;24.07;;;;;;;4.89;100.00;100638.95;1806035;77;25735;-75
2023/01/08 04:03:31;;;;;;;47.43;24.52;;;;;;;4.86;100.00;100628.14;1816038;77;25801;-75
2023/01/08 04:06:00;;;;;;;42.70;23.52;;;;;;;4.88;100.00;100626.17;1818434;77;25718;-75
2023/01/08 04:08:27;;;;;;;37.20;22.30;;;;;;;4.86;100.00;100628.62;1799187;77;27629;-75
2023/01/08 04:10:53;;;;;;;36.77;21.57;;;;;;;4.82;100.00;100632.56;1826789;77;25851;-75
